Time;durP1;ratioP1;P1;durP2;ratioP2;P2;SDS_P1;SDS_P2;PMS_P1;PMS_P2;Temp;Humidity;BMP_temperature;BMP_pressure;BME280_temperature;BME280_humidity;BME280_pressure;Samples;Min_cycle;Max_cycle;Signal;HPM_P1;HPM_P2
2020/11/17 00:00:40;;;;;;;4.099999;1.6;;;;;;;7.45;79.62598;96039.15;;;;
2020/11/17 00:01:40;;;;;;;4.099999;1.6;;;;;;;7.45;79.62598;96039.15;;;;
2020/11/17 00:02:41;;;;;;;4.099999;1.6;;;;;;;7.45;79.62598;96039.15;;;;
2020/11/17 00:03:42;;;;;;;4.099999;1.6;;;;;;;7.45;79.62598;96039.15;;;;
2020/11/17 00:04:42;;;;;;;4.099999;1.6;;;;;;;7.45;79.62598;96039.15;;;;
2020/11/17 00:05:43;;;;;;;4.45;1.7;;;;;;;7.58;79.81934;96041.92;;;;
2020/11/17 00:06:43;;;;;;;4.45;1.7;;;;;;;7.58;79.81934;96041.92;;;;
2020/11/17 00:07:43;;;;;;;4.45;1.7;;;;;;;7.58;79.81934;96041.92;;;;
2020/11/17 00:08:44;;;;;;;4.45;1.7;;;;;;;7.58;79.81934;96041.92;;;;
2020/11/17 00:09:45;;;;;;;4.45;1.7;;;;;;;7.58;79.81934;96041.92;;;;
2020/11/17 00:10:45;;;;;;;4.45;1.7;;;;;;;7.58;79.81934;96041.92;;;;
2020/11/17 00:11:46;;;;;;;4.45;1.7;;;;;;;7.58;79.81934;96041.92;;;;
2020/11/17 00:12:46;;;;;;;4.45;1.7;;;;;;;7.58;79.81934;96041.92;;;;
2020/11/17 00:13:47;;;;;;;4.45;1.7;;;;;;;7.58;79.81934;96041.92;;;;
2020/11/17 00:14:47;;;;;;;4.45;1.7;;;;;;;7.58;79.81934;96041.92;;;;
2020/11/17 00:15:48;;;;;;;4.45;1.7;;;;;;;7.58;79.81934;96041.92;;;;
2020/11/17 00:16:48;;;;;;;2.85;1.8;;;;;;;7.63;79.91113;96053.44;;;;
2020/11/17 00:17:49;;;;;;;2.85;1.8;;;;;;;7.63;79.91113;96053.44;;;;
2020/11/17 00:18:49;;;;;;;2.85;1.8;;;;;;;7.63;79.91113;96053.44;;;;
2020/11/17 00:19:50;;;;;;;2.85;1.8;;;;;;;7.63;79.91113;96053.44;;;;
2020/11/17 00:20:50;;;;;;;2.85;1.8;;;;;;;7.63;79.91113;96053.44;;;;
2020/11/17 00:21:51;;;;;;;2.85;1.8;;;;;;;7.63;79.91113;96053.44;;;;
2020/11/17 00:22:51;;;;;;;2.85;1.8;;;;;;;7.63;79.91113;96053.44;;;;
2020/11/17 00:23:52;;;;;;;2.85;1.8;;;;;;;7.63;79.91113;96053.44;;;;
2020/11/17 00:24:52;;;;;;;2.85;1.8;;;;;;;7.63;79.91113;96053.44;;;;
2020/11/17 00:25:53;;;;;;;2.85;1.8;;;;;;;7.63;79.91113;96053.44;;;;
2020/11/17 00:26:53;;;;;;;3.45;1.7;;;;;;;7.39;79.74219;96061.47;;;;
2020/11/17 00:27:54;;;;;;;3.45;1.7;;;;;;;7.39;79.74219;96061.47;;;;
2020/11/17 00:28:54;;;;;;;3.45;1.7;;;;;;;7.39;79.74219;96061.47;;;;
2020/11/17 00:29:55;;;;;;;3.45;1.7;;;;;;;7.39;79.74219;96061.47;;;;
2020/11/17 00:30:56;;;;;;;3.45;1.7;;;;;;;7.39;79.74219;96061.47;;;;
2020/11/17 00:31:56;;;;;;;3.45;1.7;;;;;;;7.39;79.74219;96061.47;;;;
2020/11/17 00:32:57;;;;;;;3.45;1.7;;;;;;;7.39;79.74219;96061.47;;;;
2020/11/17 00:33:57;;;;;;;3.45;1.7;;;;;;;7.39;79.74219;96061.47;;;;
2020/11/17 00:34:57;;;;;;;3.45;1.7;;;;;;;7.39;79.74219;96061.47;;;;
2020/11/17 00:35:58;;;;;;;3.45;1.7;;;;;;;7.39;79.74219;96061.47;;;;
2020/11/17 00:36:58;;;;;;;3.45;1.7;;;;;;;7.39;79.74219;96061.47;;;;
2020/11/17 00:37:59;;;;;;;2.95;1.8;;;;;;;7.17;80.45313;96060.78;;;;
2020/11/17 00:39:00;;;;;;;2.95;1.8;;;;;;;7.17;80.45313;96060.78;;;;
2020/11/17 00:40:00;;;;;;;2.95;1.8;;;;;;;7.17;80.45313;96060.78;;;;
2020/11/17 00:41:00;;;;;;;2.95;1.8;;;;;;;7.17;80.45313;96060.78;;;;
2020/11/17 00:42:01;;;;;;;2.95;1.8;;;;;;;7.17;80.45313;96060.78;;;;
2020/11/17 00:43:01;;;;;;;2.95;1.8;;;;;;;7.17;80.45313;96060.78;;;;
2020/11/17 00:44:02;;;;;;;2.95;1.8;;;;;;;7.17;80.45313;96060.78;;;;
2020/11/17 00:45:03;;;;;;;2.95;1.8;;;;;;;7.17;80.45313;96060.78;;;;
2020/11/17 00:46:03;;;;;;;2.95;1.8;;;;;;;7.17;80.45313;96060.78;;;;
2020/11/17 00:47:04;;;;;;;2.95;1.8;;;;;;;7.17;80.45313;96060.78;;;;
2020/11/17 00:48:04;;;;;;;4.199999;1.75;;;;;;;6.98;80.85254;96076.25;;;;
2020/11/17 00:49:05;;;;;;;4.199999;1.75;;;;;;;6.98;80.85254;96076.25;;;;
2020/11/17 00:50:05;;;;;;;4.199999;1.75;;;;;;;6.98;80.85254;96076.25;;;;
2020/11/17 00:51:06;;;;;;;4.199999;1.75;;;;;;;6.98;80.85254;96076.25;;;;
2020/11/17 00:52:06;;;;;;;4.199999;1.75;;;;;;;6.98;80.85254;96076.25;;;;
2020/11/17 00:53:07;;;;;;;4.199999;1.75;;;;;;;6.98;80.85254;96076.25;;;;
2020/11/17 00:54:07;;;;;;;4.199999;1.75;;;;;;;6.98;80.85254;96076.25;;;;
2020/11/17 00:55:08;;;;;;;4.199999;1.75;;;;;;;6.98;80.85254;96076.25;;;;
2020/11/17 00:56:09;;;;;;;4.199999;1.75;;;;;;;6.98;80.85254;96076.25;;;;
2020/11/17 00:57:09;;;;;;;4.199999;1.75;;;;;;;6.98;80.85254;96076.25;;;;
2020/11/17 00:58:10;;;;;;;4.199999;1.75;;;;;;;6.98;80.85254;96076.25;;;;
2020/11/17 00:59:11;;;;;;;4.25;1.8;;;;;;;6.94;80.83496;96076.22;;;;
2020/11/17 01:00:11;;;;;;;4.25;1.8;;;;;;;6.94;80.83496;96076.22;;;;
2020/11/17 01:01:12;;;;;;;4.25;1.8;;;;;;;6.94;80.83496;96076.22;;;;
2020/11/17 01:02:12;;;;;;;4.25;1.8;;;;;;;6.94;80.83496;96076.22;;;;
2020/11/17 01:03:13;;;;;;;4.25;1.8;;;;;;;6.94;80.83496;96076.22;;;;
2020/11/17 01:04:13;;;;;;;4.25;1.8;;;;;;;6.94;80.83496;96076.22;;;;
2020/11/17 01:05:14;;;;;;;4.25;1.8;;;;;;;6.94;80.83496;96076.22;;;;
2020/11/17 01:06:14;;;;;;;4.25;1.8;;;;;;;6.94;80.83496;96076.22;;;;
2020/11/17 01:07:15;;;;;;;4.25;1.8;;;;;;;6.94;80.83496;96076.22;;;;
2020/11/17 01:08:15;;;;;;;4.25;1.8;;;;;;;6.94;80.83496;96076.22;;;;
2020/11/17 01:09:15;;;;;;;3;2;;;;;;;6.95;80.99609;96088.61;;;;
2020/11/17 01:10:16;;;;;;;3;2;;;;;;;6.95;80.99609;96088.61;;;;
2020/11/17 01:11:16;;;;;;;3;2;;;;;;;6.95;80.99609;96088.61;;;;
2020/11/17 01:12:17;;;;;;;3;2;;;;;;;6.95;80.99609;96088.61;;;;
2020/11/17 01:13:17;;;;;;;3;2;;;;;;;6.95;80.99609;96088.61;;;;
2020/11/17 01:14:18;;;;;;;3;2;;;;;;;6.95;80.99609;96088.61;;;;
2020/11/17 01:15:18;;;;;;;3;2;;;;;;;6.95;80.99609;96088.61;;;;
2020/11/17 01:16:19;;;;;;;3;2;;;;;;;6.95;80.99609;96088.61;;;;
2020/11/17 01:17:19;;;;;;;3;2;;;;;;;6.95;80.99609;96088.61;;;;
2020/11/17 01:18:20;;;;;;;3;2;;;;;;;6.95;80.99609;96088.61;;;;
2020/11/17 01:19:20;;;;;;;3;2;;;;;;;6.95;80.99609;96088.61;;;;
2020/11/17 01:20:21;;;;;;;3.2;2.1;;;;;;;7.2;81.14941;96085.82;;;;
2020/11/17 01:21:21;;;;;;;3.2;2.1;;;;;;;7.2;81.14941;96085.82;;;;
2020/11/17 01:22:22;;;;;;;3.2;2.1;;;;;;;7.2;81.14941;96085.82;;;;
2020/11/17 01:23:22;;;;;;;3.2;2.1;;;;;;;7.2;81.14941;96085.82;;;;
2020/11/17 01:24:23;;;;;;;3.2;2.1;;;;;;;7.2;81.14941;96085.82;;;;
2020/11/17 01:25:23;;;;;;;3.2;2.1;;;;;;;7.2;81.14941;96085.82;;;;
2020/11/17 01:26:24;;;;;;;3.2;2.1;;;;;;;7.2;81.14941;96085.82;;;;
2020/11/17 01:27:24;;;;;;;3.2;2.1;;;;;;;7.2;81.14941;96085.82;;;;
2020/11/17 01:28:25;;;;;;;3.2;2.1;;;;;;;7.2;81.14941;96085.82;;;;
2020/11/17 01:29:25;;;;;;;3.2;2.1;;;;;;;7.2;81.14941;96085.82;;;;
2020/11/17 01:30:26;;;;;;;3.2;2.1;;;;;;;7.2;81.14941;96085.82;;;;
2020/11/17 01:31:26;;;;;;;4.25;2.15;;;;;;;7.35;80.92188;96091.08;;;;
2020/11/17 01:32:27;;;;;;;4.25;2.15;;;;;;;7.35;80.92188;96091.08;;;;
2020/11/17 01:33:27;;;;;;;4.25;2.15;;;;;;;7.35;80.92188;96091.08;;;;
2020/11/17 01:34:27;;;;;;;4.25;2.15;;;;;;;7.35;80.92188;96091.08;;;;
2020/11/17 01:35:28;;;;;;;4.25;2.15;;;;;;;7.35;80.92188;96091.08;;;;
2020/11/17 01:36:28;;;;;;;4.25;2.15;;;;;;;7.35;80.92188;96091.08;;;;
2020/11/17 01:37:29;;;;;;;4.25;2.15;;;;;;;7.35;80.92188;96091.08;;;;
2020/11/17 01:38:29;;;;;;;4.25;2.15;;;;;;;7.35;80.92188;96091.08;;;;
2020/11/17 01:39:30;;;;;;;4.25;2.15;;;;;;;7.35;80.92188;96091.08;;;;
2020/11/17 01:40:30;;;;;;;4.25;2.15;;;;;;;7.35;80.92188;96091.08;;;;
2020/11/17 01:41:31;;;;;;;4.3;1.9;;;;;;;7.46;80.94238;96092.3;;;;
2020/11/17 01:42:31;;;;;;;4.3;1.9;;;;;;;7.46;80.94238;96092.3;;;;
2020/11/17 01:43:32;;;;;;;4.3;1.9;;;;;;;7.46;80.94238;96092.3;;;;
2020/11/17 01:44:32;;;;;;;4.3;1.9;;;;;;;7.46;80.94238;96092.3;;;;
2020/11/17 01:45:33;;;;;;;4.3;1.9;;;;;;;7.46;80.94238;96092.3;;;;
2020/11/17 01:46:33;;;;;;;4.3;1.9;;;;;;;7.46;80.94238;96092.3;;;;
2020/11/17 01:47:34;;;;;;;4.3;1.9;;;;;;;7.46;80.94238;96092.3;;;;
2020/11/17 01:48:36;;;;;;;4.3;1.9;;;;;;;7.46;80.94238;96092.3;;;;
2020/11/17 01:49:37;;;;;;;4.3;1.9;;;;;;;7.46;80.94238;96092.3;;;;
2020/11/17 01:50:37;;;;;;;4.3;1.9;;;;;;;7.46;80.94238;96092.3;;;;
2020/11/17 01:51:38;;;;;;;4.3;1.9;;;;;;;7.46;80.94238;96092.3;;;;
2020/11/17 01:52:38;;;;;;;2.9;1.7;;;;;;;7.57;81.16504;96088.23;;;;
2020/11/17 01:53:39;;;;;;;2.9;1.7;;;;;;;7.57;81.16504;96088.23;;;;
2020/11/17 01:54:39;;;;;;;2.9;1.7;;;;;;;7.57;81.16504;96088.23;;;;
2020/11/17 01:55:40;;;;;;;2.9;1.7;;;;;;;7.57;81.16504;96088.23;;;;
2020/11/17 01:56:40;;;;;;;2.9;1.7;;;;;;;7.57;81.16504;96088.23;;;;
2020/11/17 01:57:43;;;;;;;2.9;1.7;;;;;;;7.57;81.16504;96088.23;;;;
2020/11/17 01:58:44;;;;;;;2.9;1.7;;;;;;;7.57;81.16504;96088.23;;;;
2020/11/17 01:59:44;;;;;;;2.9;1.7;;;;;;;7.57;81.16504;96088.23;;;;
2020/11/17 02:01:01;;;;;;;2.9;1.7;;;;;;;7.57;81.16504;96088.23;;;;
2020/11/17 02:02:01;;;;;;;2.9;1.7;;;;;;;7.57;81.16504;96088.23;;;;
2020/11/17 02:03:03;;;;;;;3.15;1.9;;;;;;;7.75;80.91211;96092.58;;;;
2020/11/17 02:04:05;;;;;;;3.15;1.9;;;;;;;7.75;80.91211;96092.58;;;;
2020/11/17 02:05:05;;;;;;;3.15;1.9;;;;;;;7.75;80.91211;96092.58;;;;
2020/11/17 02:06:06;;;;;;;3.15;1.9;;;;;;;7.75;80.91211;96092.58;;;;
2020/11/17 02:07:07;;;;;;;3.15;1.9;;;;;;;7.75;80.91211;96092.58;;;;
2020/11/17 02:08:07;;;;;;;3.15;1.9;;;;;;;7.75;80.91211;96092.58;;;;
2020/11/17 02:09:08;;;;;;;3.15;1.9;;;;;;;7.75;80.91211;96092.58;;;;
2020/11/17 02:10:08;;;;;;;3.15;1.9;;;;;;;7.75;80.91211;96092.58;;;;
2020/11/17 02:11:08;;;;;;;3.15;1.9;;;;;;;7.75;80.91211;96092.58;;;;
2020/11/17 02:12:09;;;;;;;3.15;1.9;;;;;;;7.75;80.91211;96092.58;;;;
2020/11/17 02:13:10;;;;;;;3.15;1.9;;;;;;;7.75;80.91211;96092.58;;;;
2020/11/17 02:14:10;;;;;;;4.199999;1.8;;;;;;;7.83;80.88379;96082.56;;;;
2020/11/17 02:15:13;;;;;;;4.199999;1.8;;;;;;;7.83;80.88379;96082.56;;;;
2020/11/17 02:16:14;;;;;;;4.199999;1.8;;;;;;;7.83;80.88379;96082.56;;;;
2020/11/17 02:17:14;;;;;;;4.199999;1.8;;;;;;;7.83;80.88379;96082.56;;;;
2020/11/17 02:18:15;;;;;;;4.199999;1.8;;;;;;;7.83;80.88379;96082.56;;;;
2020/11/17 02:19:16;;;;;;;4.199999;1.8;;;;;;;7.83;80.88379;96082.56;;;;
2020/11/17 02:20:17;;;;;;;4.199999;1.8;;;;;;;7.83;80.88379;96082.56;;;;
2020/11/17 02:21:17;;;;;;;4.199999;1.8;;;;;;;7.83;80.88379;96082.56;;;;
2020/11/17 02:22:17;;;;;;;4.199999;1.8;;;;;;;7.83;80.88379;96082.56;;;;
2020/11/17 02:23:18;;;;;;;4.199999;1.8;;;;;;;7.83;80.88379;96082.56;;;;
2020/11/17 02:24:18;;;;;;;2.3;1.75;;;;;;;7.93;80.81836;96080.78;;;;
2020/11/17 02:25:19;;;;;;;2.3;1.75;;;;;;;7.93;80.81836;96080.78;;;;
2020/11/17 02:26:20;;;;;;;2.3;1.75;;;;;;;7.93;80.81836;96080.78;;;;
2020/11/17 02:27:20;;;;;;;2.3;1.75;;;;;;;7.93;80.81836;96080.78;;;;
2020/11/17 02:28:21;;;;;;;2.3;1.75;;;;;;;7.93;80.81836;96080.78;;;;
2020/11/17 02:29:21;;;;;;;2.3;1.75;;;;;;;7.93;80.81836;96080.78;;;;
2020/11/17 02:30:22;;;;;;;2.3;1.75;;;;;;;7.93;80.81836;96080.78;;;;
2020/11/17 02:31:22;;;;;;;2.3;1.75;;;;;;;7.93;80.81836;96080.78;;;;
2020/11/17 02:32:23;;;;;;;2.3;1.75;;;;;;;7.93;80.81836;96080.78;;;;
2020/11/17 02:33:23;;;;;;;2.3;1.75;;;;;;;7.93;80.81836;96080.78;;;;
2020/11/17 02:34:24;;;;;;;2.3;1.75;;;;;;;7.93;80.81836;96080.78;;;;
2020/11/17 02:35:24;;;;;;;3.7;1.7;;;;;;;7.94;80.83008;96091.42;;;;
2020/11/17 02:36:25;;;;;;;3.7;1.7;;;;;;;7.94;80.83008;96091.42;;;;
2020/11/17 02:37:25;;;;;;;3.7;1.7;;;;;;;7.94;80.83008;96091.42;;;;
2020/11/17 02:38:26;;;;;;;3.7;1.7;;;;;;;7.94;80.83008;96091.42;;;;
2020/11/17 02:39:26;;;;;;;3.7;1.7;;;;;;;7.94;80.83008;96091.42;;;;
2020/11/17 02:40:27;;;;;;;3.7;1.7;;;;;;;7.94;80.83008;96091.42;;;;
2020/11/17 02:41:28;;;;;;;3.7;1.7;;;;;;;7.94;80.83008;96091.42;;;;
2020/11/17 02:42:28;;;;;;;3.7;1.7;;;;;;;7.94;80.83008;96091.42;;;;
2020/11/17 02:43:28;;;;;;;3.7;1.7;;;;;;;7.94;80.83008;96091.42;;;;
2020/11/17 02:44:29;;;;;;;3.7;1.7;;;;;;;7.94;80.83008;96091.42;;;;
2020/11/17 02:45:29;;;;;;;3.4;1.9;;;;;;;8.02;81.01465;96087.23;;;;
2020/11/17 02:46:30;;;;;;;3.4;1.9;;;;;;;8.02;81.01465;96087.23;;;;
2020/11/17 02:47:30;;;;;;;3.4;1.9;;;;;;;8.02;81.01465;96087.23;;;;
2020/11/17 02:48:31;;;;;;;3.4;1.9;;;;;;;8.02;81.01465;96087.23;;;;
2020/11/17 02:49:32;;;;;;;3.4;1.9;;;;;;;8.02;81.01465;96087.23;;;;
2020/11/17 02:50:32;;;;;;;3.4;1.9;;;;;;;8.02;81.01465;96087.23;;;;
2020/11/17 02:51:34;;;;;;;3.4;1.9;;;;;;;8.02;81.01465;96087.23;;;;
2020/11/17 02:52:34;;;;;;;3.4;1.9;;;;;;;8.02;81.01465;96087.23;;;;
2020/11/17 02:53:35;;;;;;;3.4;1.9;;;;;;;8.02;81.01465;96087.23;;;;
2020/11/17 02:54:35;;;;;;;3.4;1.9;;;;;;;8.02;81.01465;96087.23;;;;
2020/11/17 02:55:36;;;;;;;3.4;1.9;;;;;;;8.02;81.01465;96087.23;;;;
2020/11/17 02:56:36;;;;;;;3.05;1.95;;;;;;;8.02;80.96094;96092.61;;;;
2020/11/17 02:57:37;;;;;;;3.05;1.95;;;;;;;8.02;80.96094;96092.61;;;;
2020/11/17 02:58:37;;;;;;;3.05;1.95;;;;;;;8.02;80.96094;96092.61;;;;
2020/11/17 02:59:39;;;;;;;3.05;1.95;;;;;;;8.02;80.96094;96092.61;;;;
2020/11/17 03:00:39;;;;;;;3.05;1.95;;;;;;;8.02;80.96094;96092.61;;;;
2020/11/17 03:01:40;;;;;;;3.05;1.95;;;;;;;8.02;80.96094;96092.61;;;;
2020/11/17 03:02:40;;;;;;;3.05;1.95;;;;;;;8.02;80.96094;96092.61;;;;
2020/11/17 03:03:41;;;;;;;3.05;1.95;;;;;;;8.02;80.96094;96092.61;;;;
2020/11/17 03:04:41;;;;;;;3.05;1.95;;;;;;;8.02;80.96094;96092.61;;;;
2020/11/17 03:05:42;;;;;;;3.05;1.95;;;;;;;8.02;80.96094;96092.61;;;;
2020/11/17 03:06:42;;;;;;;2.6;1.7;;;;;;;8.07;80.91895;96090.14;;;;
2020/11/17 03:07:43;;;;;;;2.6;1.7;;;;;;;8.07;80.91895;96090.14;;;;
2020/11/17 03:08:43;;;;;;;2.6;1.7;;;;;;;8.07;80.91895;96090.14;;;;
2020/11/17 03:09:43;;;;;;;2.6;1.7;;;;;;;8.07;80.91895;96090.14;;;;
2020/11/17 03:10:44;;;;;;;2.6;1.7;;;;;;;8.07;80.91895;96090.14;;;;
2020/11/17 03:11:44;;;;;;;2.6;1.7;;;;;;;8.07;80.91895;96090.14;;;;
2020/11/17 03:12:45;;;;;;;2.6;1.7;;;;;;;8.07;80.91895;96090.14;;;;
2020/11/17 03:13:46;;;;;;;2.6;1.7;;;;;;;8.07;80.91895;96090.14;;;;
2020/11/17 03:14:46;;;;;;;2.6;1.7;;;;;;;8.07;80.91895;96090.14;;;;
2020/11/17 03:15:46;;;;;;;2.6;1.7;;;;;;;8.07;80.91895;96090.14;;;;
2020/11/17 03:16:47;;;;;;;2.6;1.7;;;;;;;8.07;80.91895;96090.14;;;;
2020/11/17 03:17:48;;;;;;;3;2;;;;;;;8.03;81.06934;96091.99;;;;
2020/11/17 03:18:48;;;;;;;3;2;;;;;;;8.03;81.06934;96091.99;;;;
2020/11/17 03:19:49;;;;;;;3;2;;;;;;;8.03;81.06934;96091.99;;;;
2020/11/17 03:20:49;;;;;;;3;2;;;;;;;8.03;81.06934;96091.99;;;;
2020/11/17 03:21:50;;;;;;;3;2;;;;;;;8.03;81.06934;96091.99;;;;
2020/11/17 03:22:50;;;;;;;3;2;;;;;;;8.03;81.06934;96091.99;;;;
2020/11/17 03:23:51;;;;;;;3;2;;;;;;;8.03;81.06934;96091.99;;;;
2020/11/17 03:24:51;;;;;;;3;2;;;;;;;8.03;81.06934;96091.99;;;;
2020/11/17 03:25:52;;;;;;;3;2;;;;;;;8.03;81.06934;96091.99;;;;
2020/11/17 03:26:52;;;;;;;3;2;;;;;;;8.03;81.06934;96091.99;;;;
2020/11/17 03:27:53;;;;;;;3;2;;;;;;;8.03;81.06934;96091.99;;;;
2020/11/17 03:28:53;;;;;;;2.6;1.9;;;;;;;8.03;81.18555;96089.71;;;;
2020/11/17 03:29:54;;;;;;;2.6;1.9;;;;;;;8.03;81.18555;96089.71;;;;
2020/11/17 03:30:54;;;;;;;2.6;1.9;;;;;;;8.03;81.18555;96089.71;;;;
2020/11/17 03:31:55;;;;;;;2.6;1.9;;;;;;;8.03;81.18555;96089.71;;;;
2020/11/17 03:32:55;;;;;;;2.6;1.9;;;;;;;8.03;81.18555;96089.71;;;;
2020/11/17 03:33:56;;;;;;;2.6;1.9;;;;;;;8.03;81.18555;96089.71;;;;
2020/11/17 03:34:56;;;;;;;2.6;1.9;;;;;;;8.03;81.18555;96089.71;;;;
2020/11/17 03:35:57;;;;;;;2.6;1.9;;;;;;;8.03;81.18555;96089.71;;;;
2020/11/17 03:36:57;;;;;;;2.6;1.9;;;;;;;8.03;81.18555;96089.71;;;;
2020/11/17 03:37:58;;;;;;;2.6;1.9;;;;;;;8.03;81.18555;96089.71;;;;
2020/11/17 03:38:58;;;;;;;3.849999;2.1;;;;;;;7.95;81.30957;96088.53;;;;
2020/11/17 03:39:59;;;;;;;3.849999;2.1;;;;;;;7.95;81.30957;96088.53;;;;
2020/11/17 03:40:59;;;;;;;3.849999;2.1;;;;;;;7.95;81.30957;96088.53;;;;
2020/11/17 03:42:00;;;;;;;3.849999;2.1;;;;;;;7.95;81.30957;96088.53;;;;
2020/11/17 03:43:00;;;;;;;3.849999;2.1;;;;;;;7.95;81.30957;96088.53;;;;
2020/11/17 03:44:01;;;;;;;3.849999;2.1;;;;;;;7.95;81.30957;96088.53;;;;
2020/11/17 03:45:01;;;;;;;3.849999;2.1;;;;;;;7.95;81.30957;96088.53;;;;
2020/11/17 03:46:02;;;;;;;3.849999;2.1;;;;;;;7.95;81.30957;96088.53;;;;
2020/11/17 03:47:03;;;;;;;3.849999;2.1;;;;;;;7.95;81.30957;96088.53;;;;
2020/11/17 03:48:03;;;;;;;3.849999;2.1;;;;;;;7.95;81.30957;96088.53;;;;
2020/11/17 03:49:04;;;;;;;3.849999;2.1;;;;;;;7.95;81.30957;96088.53;;;;
2020/11/17 03:50:05;;;;;;;2.75;1.85;;;;;;;7.99;81.41016;96104.69;;;;
2020/11/17 03:51:05;;;;;;;2.75;1.85;;;;;;;7.99;81.41016;96104.69;;;;
2020/11/17 03:52:05;;;;;;;2.75;1.85;;;;;;;7.99;81.41016;96104.69;;;;
2020/11/17 03:53:06;;;;;;;2.75;1.85;;;;;;;7.99;81.41016;96104.69;;;;
2020/11/17 03:54:06;;;;;;;2.75;1.85;;;;;;;7.99;81.41016;96104.69;;;;
2020/11/17 03:55:07;;;;;;;2.75;1.85;;;;;;;7.99;81.41016;96104.69;;;;
2020/11/17 03:56:08;;;;;;;2.75;1.85;;;;;;;7.99;81.41016;96104.69;;;;
2020/11/17 03:57:08;;;;;;;2.75;1.85;;;;;;;7.99;81.41016;96104.69;;;;
2020/11/17 03:58:09;;;;;;;2.75;1.85;;;;;;;7.99;81.41016;96104.69;;;;
2020/11/17 03:59:09;;;;;;;2.75;1.85;;;;;;;7.99;81.41016;96104.69;;;;
2020/11/17 04:00:10;;;;;;;4.85;1.9;;;;;;;7.97;81.36621;96121;;;;
2020/11/17 04:01:10;;;;;;;4.85;1.9;;;;;;;7.97;81.36621;96121;;;;
2020/11/17 04:02:11;;;;;;;4.85;1.9;;;;;;;7.97;81.36621;96121;;;;
2020/11/17 04:03:11;;;;;;;4.85;1.9;;;;;;;7.97;81.36621;96121;;;;
2020/11/17 04:04:12;;;;;;;4.85;1.9;;;;;;;7.97;81.36621;96121;;;;
2020/11/17 04:05:12;;;;;;;4.85;1.9;;;;;;;7.97;81.36621;96121;;;;
2020/11/17 04:06:13;;;;;;;4.85;1.9;;;;;;;7.97;81.36621;96121;;;;
2020/11/17 04:07:13;;;;;;;4.85;1.9;;;;;;;7.97;81.36621;96121;;;;
2020/11/17 04:08:14;;;;;;;4.85;1.9;;;;;;;7.97;81.36621;96121;;;;
2020/11/17 04:09:14;;;;;;;4.85;1.9;;;;;;;7.97;81.36621;96121;;;;
2020/11/17 04:10:15;;;;;;;4.85;1.9;;;;;;;7.97;81.36621;96121;;;;
2020/11/17 04:11:15;;;;;;;5.1;1.95;;;;;;;8.02;81.59766;96112.77;;;;
2020/11/17 04:12:16;;;;;;;5.1;1.95;;;;;;;8.02;81.59766;96112.77;;;;
2020/11/17 04:13:16;;;;;;;5.1;1.95;;;;;;;8.02;81.59766;96112.77;;;;
2020/11/17 04:14:17;;;;;;;5.1;1.95;;;;;;;8.02;81.59766;96112.77;;;;
2020/11/17 04:15:17;;;;;;;5.1;1.95;;;;;;;8.02;81.59766;96112.77;;;;
2020/11/17 04:16:18;;;;;;;5.1;1.95;;;;;;;8.02;81.59766;96112.77;;;;
2020/11/17 04:17:19;;;;;;;5.1;1.95;;;;;;;8.02;81.59766;96112.77;;;;
2020/11/17 04:18:19;;;;;;;5.1;1.95;;;;;;;8.02;81.59766;96112.77;;;;
2020/11/17 04:19:20;;;;;;;5.1;1.95;;;;;;;8.02;81.59766;96112.77;;;;
2020/11/17 04:20:20;;;;;;;5.1;1.95;;;;;;;8.02;81.59766;96112.77;;;;
2020/11/17 04:21:21;;;;;;;3.75;1.7;;;;;;;8;81.66016;96123.32;;;;
2020/11/17 04:22:21;;;;;;;3.75;1.7;;;;;;;8;81.66016;96123.32;;;;
2020/11/17 04:23:22;;;;;;;3.75;1.7;;;;;;;8;81.66016;96123.32;;;;
2020/11/17 04:24:22;;;;;;;3.75;1.7;;;;;;;8;81.66016;96123.32;;;;
2020/11/17 04:25:23;;;;;;;3.75;1.7;;;;;;;8;81.66016;96123.32;;;;
2020/11/17 04:26:23;;;;;;;3.75;1.7;;;;;;;8;81.66016;96123.32;;;;
2020/11/17 04:27:23;;;;;;;3.75;1.7;;;;;;;8;81.66016;96123.32;;;;
2020/11/17 04:28:24;;;;;;;3.75;1.7;;;;;;;8;81.66016;96123.32;;;;
2020/11/17 04:29:24;;;;;;;3.75;1.7;;;;;;;8;81.66016;96123.32;;;;
2020/11/17 04:30:25;;;;;;;3.75;1.7;;;;;;;8;81.66016;96123.32;;;;
2020/11/17 04:31:25;;;;;;;3.75;1.7;;;;;;;8;81.66016;96123.32;;;;
2020/11/17 04:32:26;;;;;;;3.8;1.85;;;;;;;8.04;81.83691;96135.31;;;;
2020/11/17 04:33:26;;;;;;;3.8;1.85;;;;;;;8.04;81.83691;96135.31;;;;
2020/11/17 04:34:27;;;;;;;3.8;1.85;;;;;;;8.04;81.83691;96135.31;;;;
2020/11/17 04:35:27;;;;;;;3.8;1.85;;;;;;;8.04;81.83691;96135.31;;;;
2020/11/17 04:36:28;;;;;;;3.8;1.85;;;;;;;8.04;81.83691;96135.31;;;;
2020/11/17 04:37:28;;;;;;;3.8;1.85;;;;;;;8.04;81.83691;96135.31;;;;
2020/11/17 04:38:29;;;;;;;3.8;1.85;;;;;;;8.04;81.83691;96135.31;;;;
2020/11/17 04:39:29;;;;;;;3.8;1.85;;;;;;;8.04;81.83691;96135.31;;;;
2020/11/17 04:40:30;;;;;;;3.8;1.85;;;;;;;8.04;81.83691;96135.31;;;;
2020/11/17 04:41:30;;;;;;;3.8;1.85;;;;;;;8.04;81.83691;96135.31;;;;
2020/11/17 04:42:31;;;;;;;3.8;1.85;;;;;;;8.04;81.83691;96135.31;;;;
2020/11/17 04:43:31;;;;;;;2.55;1.65;;;;;;;8.01;81.98926;96127.23;;;;
2020/11/17 04:44:32;;;;;;;2.55;1.65;;;;;;;8.01;81.98926;96127.23;;;;
2020/11/17 04:45:32;;;;;;;2.55;1.65;;;;;;;8.01;81.98926;96127.23;;;;
2020/11/17 04:46:32;;;;;;;2.55;1.65;;;;;;;8.01;81.98926;96127.23;;;;
2020/11/17 04:47:34;;;;;;;2.55;1.65;;;;;;;8.01;81.98926;96127.23;;;;
2020/11/17 04:48:34;;;;;;;2.55;1.65;;;;;;;8.01;81.98926;96127.23;;;;
2020/11/17 04:49:35;;;;;;;2.55;1.65;;;;;;;8.01;81.98926;96127.23;;;;
2020/11/17 04:50:36;;;;;;;2.55;1.65;;;;;;;8.01;81.98926;96127.23;;;;
2020/11/17 04:51:37;;;;;;;2.55;1.65;;;;;;;8.01;81.98926;96127.23;;;;
2020/11/17 04:52:37;;;;;;;2.55;1.65;;;;;;;8.01;81.98926;96127.23;;;;
2020/11/17 04:53:38;;;;;;;4;2.05;;;;;;;8.03;82.02441;96122.91;;;;
2020/11/17 04:54:38;;;;;;;4;2.05;;;;;;;8.03;82.02441;96122.91;;;;
2020/11/17 04:55:39;;;;;;;4;2.05;;;;;;;8.03;82.02441;96122.91;;;;
2020/11/17 04:56:57;;;;;;;4;2.05;;;;;;;8.03;82.02441;96122.91;;;;
2020/11/17 04:57:58;;;;;;;4;2.05;;;;;;;8.03;82.02441;96122.91;;;;
2020/11/17 04:59:00;;;;;;;4;2.05;;;;;;;8.03;82.02441;96122.91;;;;
2020/11/17 05:00:01;;;;;;;4;2.05;;;;;;;8.03;82.02441;96122.91;;;;
2020/11/17 05:01:01;;;;;;;4;2.05;;;;;;;8.03;82.02441;96122.91;;;;
2020/11/17 05:02:13;;;;;;;4;2.05;;;;;;;8.03;82.02441;96122.91;;;;
2020/11/17 05:03:13;;;;;;;4;2.05;;;;;;;8.03;82.02441;96122.91;;;;
2020/11/17 05:04:14;;;;;;;2.55;1.95;;;;;;;8;82.09473;96137.18;;;;
2020/11/17 05:05:14;;;;;;;2.55;1.95;;;;;;;8;82.09473;96137.18;;;;
2020/11/17 05:06:15;;;;;;;2.55;1.95;;;;;;;8;82.09473;96137.18;;;;
2020/11/17 05:07:16;;;;;;;2.55;1.95;;;;;;;8;82.09473;96137.18;;;;
2020/11/17 05:08:16;;;;;;;2.55;1.95;;;;;;;8;82.09473;96137.18;;;;
2020/11/17 05:09:30;;;;;;;2.55;1.95;;;;;;;8;82.09473;96137.18;;;;
2020/11/17 05:10:31;;;;;;;2.55;1.95;;;;;;;8;82.09473;96137.18;;;;
2020/11/17 05:11:32;;;;;;;2.55;1.95;;;;;;;8;82.09473;96137.18;;;;
2020/11/17 05:12:32;;;;;;;2.55;1.95;;;;;;;8;82.09473;96137.18;;;;
2020/11/17 05:13:33;;;;;;;2.55;1.95;;;;;;;8;82.09473;96137.18;;;;
2020/11/17 05:14:33;;;;;;;2.55;1.95;;;;;;;8;82.09473;96137.18;;;;
2020/11/17 05:15:33;;;;;;;3.35;2;;;;;;;8.03;82.2793;96139.97;;;;
2020/11/17 05:16:34;;;;;;;3.35;2;;;;;;;8.03;82.2793;96139.97;;;;
2020/11/17 05:17:44;;;;;;;3.35;2;;;;;;;8.03;82.2793;96139.97;;;;
2020/11/17 05:18:46;;;;;;;3.35;2;;;;;;;8.03;82.2793;96139.97;;;;
2020/11/17 05:19:47;;;;;;;3.35;2;;;;;;;8.03;82.2793;96139.97;;;;
2020/11/17 05:20:47;;;;;;;3.35;2;;;;;;;8.03;82.2793;96139.97;;;;
2020/11/17 05:21:57;;;;;;;3.35;2;;;;;;;8.03;82.2793;96139.97;;;;
2020/11/17 05:22:57;;;;;;;3.35;2;;;;;;;8.03;82.2793;96139.97;;;;
2020/11/17 05:24:00;;;;;;;3.35;2;;;;;;;8.03;82.2793;96139.97;;;;
2020/11/17 05:25:01;;;;;;;3.35;2;;;;;;;8.03;82.2793;96139.97;;;;
2020/11/17 05:26:02;;;;;;;4.45;2.2;;;;;;;7.99;82.29102;96145.03;;;;
2020/11/17 05:27:12;;;;;;;4.45;2.2;;;;;;;7.99;82.29102;96145.03;;;;
2020/11/17 05:28:12;;;;;;;4.45;2.2;;;;;;;7.99;82.29102;96145.03;;;;
2020/11/17 05:29:21;;;;;;;4.45;2.2;;;;;;;7.99;82.29102;96145.03;;;;
2020/11/17 05:30:22;;;;;;;4.45;2.2;;;;;;;7.99;82.29102;96145.03;;;;
2020/11/17 05:31:23;;;;;;;4.45;2.2;;;;;;;7.99;82.29102;96145.03;;;;
2020/11/17 05:32:24;;;;;;;4.45;2.2;;;;;;;7.99;82.29102;96145.03;;;;
2020/11/17 05:33:25;;;;;;;4.45;2.2;;;;;;;7.99;82.29102;96145.03;;;;
2020/11/17 05:34:26;;;;;;;4.45;2.2;;;;;;;7.99;82.29102;96145.03;;;;
2020/11/17 05:35:26;;;;;;;4.45;2.2;;;;;;;7.99;82.29102;96145.03;;;;
2020/11/17 05:36:35;;;;;;;3.8;2.05;;;;;;;8.01;82.34961;96156.39;;;;
2020/11/17 05:37:40;;;;;;;3.8;2.05;;;;;;;8.01;82.34961;96156.39;;;;
2020/11/17 05:38:43;;;;;;;3.8;2.05;;;;;;;8.01;82.34961;96156.39;;;;
2020/11/17 05:39:48;;;;;;;3.8;2.05;;;;;;;8.01;82.34961;96156.39;;;;
2020/11/17 05:40:49;;;;;;;3.8;2.05;;;;;;;8.01;82.34961;96156.39;;;;
2020/11/17 05:41:50;;;;;;;3.8;2.05;;;;;;;8.01;82.34961;96156.39;;;;
2020/11/17 05:42:50;;;;;;;3.8;2.05;;;;;;;8.01;82.34961;96156.39;;;;
2020/11/17 05:43:51;;;;;;;3.8;2.05;;;;;;;8.01;82.34961;96156.39;;;;
2020/11/17 05:44:55;;;;;;;3.8;2.05;;;;;;;8.01;82.34961;96156.39;;;;
2020/11/17 05:45:56;;;;;;;3.8;2.05;;;;;;;8.01;82.34961;96156.39;;;;
2020/11/17 05:46:58;;;;;;;3.45;2.05;;;;;;;7.91;82.46973;96169.8;;;;
2020/11/17 05:47:58;;;;;;;3.45;2.05;;;;;;;7.91;82.46973;96169.8;;;;
2020/11/17 05:48:59;;;;;;;3.45;2.05;;;;;;;7.91;82.46973;96169.8;;;;
2020/11/17 05:50:06;;;;;;;3.45;2.05;;;;;;;7.91;82.46973;96169.8;;;;
2020/11/17 05:51:11;;;;;;;3.45;2.05;;;;;;;7.91;82.46973;96169.8;;;;
2020/11/17 05:52:12;;;;;;;3.45;2.05;;;;;;;7.91;82.46973;96169.8;;;;
2020/11/17 05:53:40;;;;;;;3.45;2.05;;;;;;;7.91;82.46973;96169.8;;;;
2020/11/17 05:54:43;;;;;;;3.45;2.05;;;;;;;7.91;82.46973;96169.8;;;;
2020/11/17 05:55:44;;;;;;;3.45;2.05;;;;;;;7.91;82.46973;96169.8;;;;
2020/11/17 05:56:44;;;;;;;3.45;2.05;;;;;;;7.91;82.46973;96169.8;;;;